EHWO

Woensdrecht Air Base

Airport
ICAO code
EHWO
IATA Code
WOE
Summary
ICAO Region
EUR
ICAO Territory
Location

Woensdrecht, Noord-Brabant

Serving
Woensdrecht
Elevation
63 ft
Coordinates
51° 26' 57" N , 4° 20' 31" E
KCC
Cfb
Metar
Observation
EHWO 081725Z AUTO 02009KT 330V080 9999 NCD 23/12 Q1025 BLU
Station
Woensdrecht
Date/Time
2022-08-08 17:25:00
Wind direction
20°
Wind speed
09 kts
Lowest cloud amount
no clouds detected
Temperature
23°C
Dew point
12°C
Humidity
49%
QNH
1025 hPa
Weather condition
n/a

Woensdrecht Air Base is a military airport between the villages of Woensdrecht and Huijbergen, about 10 km south of the city of Bergen op Zoom in the Netherlands.

Climatology

Temperate Marine climate/Oceanic climate (Köppen climate classification Cfb). Moderately cool summer and comparatively warm winter with a temperature range of only 14°C. Prevailing south-westerly winds from the Atlantic Ocean.

Runways

Designator Length Width Surface Rops
7/25 2437 45 ASP Yes/Yes

Airport map

Aerial View

SKYbrary Partners:

Safety knowledge contributed by: